sensor_id;sensor_type;location;lat;lon;timestamp;pressure;altitude;pressure_sealevel;temperature;humidity
26807;BME280;14380;49.910;6.792;2022-12-20T00:00:10;99082.13;;;4.63;nan
26807;BME280;14380;49.910;6.792;2022-12-20T00:02:37;99070.25;;;4.50;nan
26807;BME280;14380;49.910;6.792;2022-12-20T00:05:04;99067.50;;;4.87;nan
26807;BME280;14380;49.910;6.792;2022-12-20T00:07:31;99062.50;;;4.80;nan
26807;BME280;14380;49.910;6.792;2022-12-20T00:09:57;99064.75;;;4.60;nan
26807;BME280;14380;49.910;6.792;2022-12-20T00:12:25;99072.88;;;4.50;nan
26807;BME280;14380;49.910;6.792;2022-12-20T00:14:52;99061.28;;;4.60;nan
26807;BME280;14380;49.910;6.792;2022-12-20T00:17:18;99050.09;;;4.53;nan
26807;BME280;14380;49.910;6.792;2022-12-20T00:19:45;99047.31;;;4.26;nan
26807;BME280;14380;49.910;6.792;2022-12-20T00:22:11;99046.75;;;4.13;nan
26807;BME280;14380;49.910;6.792;2022-12-20T00:24:38;99046.63;;;4.18;nan
26807;BME280;14380;49.910;6.792;2022-12-20T00:27:04;99051.97;;;4.13;nan
26807;BME280;14380;49.910;6.792;2022-12-20T00:29:32;99058.53;;;3.94;nan
26807;BME280;14380;49.910;6.792;2022-12-20T00:31:59;99053.50;;;3.86;nan
26807;BME280;14380;49.910;6.792;2022-12-20T00:34:25;99064.56;;;3.97;nan
26807;BME280;14380;49.910;6.792;2022-12-20T00:36:52;99052.59;;;3.87;nan
26807;BME280;14380;49.910;6.792;2022-12-20T00:39:19;99051.78;;;3.85;nan
26807;BME280;14380;49.910;6.792;2022-12-20T00:41:45;99047.88;;;4.01;nan
26807;BME280;14380;49.910;6.792;2022-12-20T00:44:11;99048.84;;;3.99;nan
26807;BME280;14380;49.910;6.792;2022-12-20T00:46:39;99049.72;;;3.98;nan
26807;BME280;14380;49.910;6.792;2022-12-20T00:49:06;99059.63;;;3.83;nan
26807;BME280;14380;49.910;6.792;2022-12-20T00:51:32;99053.75;;;3.75;nan
26807;BME280;14380;49.910;6.792;2022-12-20T00:53:59;99058.09;;;3.75;nan
26807;BME280;14380;49.910;6.792;2022-12-20T00:56:26;99052.69;;;3.82;nan
26807;BME280;14380;49.910;6.792;2022-12-20T00:58:52;99053.25;;;3.57;nan
26807;BME280;14380;49.910;6.792;2022-12-20T01:01:22;99047.78;;;3.68;nan
26807;BME280;14380;49.910;6.792;2022-12-20T01:03:51;99042.25;;;3.82;nan
26807;BME280;14380;49.910;6.792;2022-12-20T01:06:18;99044.59;;;3.55;nan
26807;BME280;14380;49.910;6.792;2022-12-20T01:08:44;99037.78;;;3.48;nan
26807;BME280;14380;49.910;6.792;2022-12-20T01:11:13;99024.59;;;3.54;nan
26807;BME280;14380;49.910;6.792;2022-12-20T01:13:43;99025.44;;;3.56;nan
26807;BME280;14380;49.910;6.792;2022-12-20T01:16:12;99021.41;;;3.41;nan
26807;BME280;14380;49.910;6.792;2022-12-20T01:18:39;99010.91;;;3.45;nan
26807;BME280;14380;49.910;6.792;2022-12-20T01:21:09;99018.22;;;3.66;nan
26807;BME280;14380;49.910;6.792;2022-12-20T01:23:36;99027.97;;;3.60;nan
26807;BME280;14380;49.910;6.792;2022-12-20T01:26:04;99026.38;;;3.52;nan
26807;BME280;14380;49.910;6.792;2022-12-20T01:28:34;99025.38;;;3.58;nan
26807;BME280;14380;49.910;6.792;2022-12-20T01:31:01;99029.72;;;3.59;nan
26807;BME280;14380;49.910;6.792;2022-12-20T01:33:27;99031.03;;;3.39;nan
26807;BME280;14380;49.910;6.792;2022-12-20T01:35:55;99035.22;;;3.47;nan
26807;BME280;14380;49.910;6.792;2022-12-20T01:38:24;99031.66;;;3.51;nan
26807;BME280;14380;49.910;6.792;2022-12-20T01:40:51;99027.16;;;3.56;nan
26807;BME280;14380;49.910;6.792;2022-12-20T01:43:18;99020.91;;;3.65;nan
26807;BME280;14380;49.910;6.792;2022-12-20T01:45:45;99006.06;;;3.67;nan
26807;BME280;14380;49.910;6.792;2022-12-20T01:48:13;99008.53;;;3.71;nan
26807;BME280;14380;49.910;6.792;2022-12-20T01:50:43;99007.84;;;3.65;nan
26807;BME280;14380;49.910;6.792;2022-12-20T01:53:10;98999.03;;;3.69;nan
26807;BME280;14380;49.910;6.792;2022-12-20T01:55:38;98994.88;;;3.60;nan
26807;BME280;14380;49.910;6.792;2022-12-20T01:58:07;99005.03;;;3.74;nan
26807;BME280;14380;49.910;6.792;2022-12-20T02:00:35;99001.19;;;3.89;nan
26807;BME280;14380;49.910;6.792;2022-12-20T02:03:04;99007.91;;;3.62;nan
26807;BME280;14380;49.910;6.792;2022-12-20T02:05:34;99009.38;;;3.74;nan
26807;BME280;14380;49.910;6.792;2022-12-20T02:08:01;99006.22;;;3.97;nan
26807;BME280;14380;49.910;6.792;2022-12-20T02:10:34;98999.56;;;3.83;nan
26807;BME280;14380;49.910;6.792;2022-12-20T02:13:16;99003.78;;;3.89;nan
26807;BME280;14380;49.910;6.792;2022-12-20T02:15:50;99006.81;;;4.08;nan
26807;BME280;14380;49.910;6.792;2022-12-20T02:18:21;99008.88;;;3.95;nan
26807;BME280;14380;49.910;6.792;2022-12-20T02:21:13;98990.47;;;4.00;nan
26807;BME280;14380;49.910;6.792;2022-12-20T02:27:08;98992.13;;;4.02;nan
26807;BME280;14380;49.910;6.792;2022-12-20T02:32:47;98970.22;;;4.08;nan
26807;BME280;14380;49.910;6.792;2022-12-20T02:35:20;98963.31;;;4.06;nan
26807;BME280;14380;49.910;6.792;2022-12-20T02:37:48;98948.59;;;4.03;nan
26807;BME280;14380;49.910;6.792;2022-12-20T02:40:18;98963.31;;;4.06;nan
26807;BME280;14380;49.910;6.792;2022-12-20T02:42:48;98959.88;;;4.04;nan
26807;BME280;14380;49.910;6.792;2022-12-20T02:45:19;98963.25;;;4.09;nan
26807;BME280;14380;49.910;6.792;2022-12-20T02:47:50;98964.66;;;4.21;nan
26807;BME280;14380;49.910;6.792;2022-12-20T02:50:22;98960.63;;;4.09;nan
26807;BME280;14380;49.910;6.792;2022-12-20T02:52:50;98970.31;;;4.05;nan
26807;BME280;14380;49.910;6.792;2022-12-20T02:55:17;98965.09;;;4.05;nan
26807;BME280;14380;49.910;6.792;2022-12-20T02:57:48;98963.56;;;3.96;nan
26807;BME280;14380;49.910;6.792;2022-12-20T03:00:20;98961.41;;;4.12;nan
26807;BME280;14380;49.910;6.792;2022-12-20T03:02:48;98958.59;;;4.20;nan
26807;BME280;14380;49.910;6.792;2022-12-20T03:05:35;98953.25;;;4.25;nan
26807;BME280;14380;49.910;6.792;2022-12-20T03:08:05;98954.97;;;4.26;nan
26807;BME280;14380;49.910;6.792;2022-12-20T03:10:31;98958.13;;;4.39;nan
26807;BME280;14380;49.910;6.792;2022-12-20T03:12:58;98947.84;;;4.31;nan
26807;BME280;14380;49.910;6.792;2022-12-20T03:15:26;98934.25;;;4.51;nan
26807;BME280;14380;49.910;6.792;2022-12-20T03:17:52;98937.91;;;4.44;nan
26807;BME280;14380;49.910;6.792;2022-12-20T03:20:20;98933.88;;;4.34;nan
26807;BME280;14380;49.910;6.792;2022-12-20T03:22:46;98931.34;;;4.29;nan
26807;BME280;14380;49.910;6.792;2022-12-20T03:25:13;98938.03;;;4.41;nan
26807;BME280;14380;49.910;6.792;2022-12-20T03:27:40;98940.00;;;4.31;nan
26807;BME280;14380;49.910;6.792;2022-12-20T03:30:07;98947.66;;;4.39;nan
26807;BME280;14380;49.910;6.792;2022-12-20T03:32:35;98946.13;;;4.31;nan
26807;BME280;14380;49.910;6.792;2022-12-20T03:35:02;98951.78;;;4.14;nan
26807;BME280;14380;49.910;6.792;2022-12-20T03:37:28;98949.63;;;3.97;nan
26807;BME280;14380;49.910;6.792;2022-12-20T03:39:55;98953.88;;;4.00;nan
26807;BME280;14380;49.910;6.792;2022-12-20T03:42:21;98942.88;;;4.22;nan
26807;BME280;14380;49.910;6.792;2022-12-20T03:44:48;98941.59;;;4.04;nan
26807;BME280;14380;49.910;6.792;2022-12-20T03:47:14;98941.13;;;4.22;nan
26807;BME280;14380;49.910;6.792;2022-12-20T03:49:42;98933.66;;;4.08;nan
26807;BME280;14380;49.910;6.792;2022-12-20T03:52:10;98930.59;;;4.25;nan
26807;BME280;14380;49.910;6.792;2022-12-20T03:54:37;98926.13;;;4.29;nan
26807;BME280;14380;49.910;6.792;2022-12-20T03:57:03;98921.72;;;4.31;nan
26807;BME280;14380;49.910;6.792;2022-12-20T03:59:30;98916.78;;;4.20;nan
26807;BME280;14380;49.910;6.792;2022-12-20T04:01:57;98915.88;;;4.21;nan
26807;BME280;14380;49.910;6.792;2022-12-20T04:04:23;98904.47;;;4.25;nan
26807;BME280;14380;49.910;6.792;2022-12-20T04:06:51;98916.84;;;4.19;nan
26807;BME280;14380;49.910;6.792;2022-12-20T04:09:18;98928.34;;;4.44;nan
26807;BME280;14380;49.910;6.792;2022-12-20T04:11:44;98935.44;;;4.39;nan
26807;BME280;14380;49.910;6.792;2022-12-20T04:14:11;98923.25;;;4.40;nan
26807;BME280;14380;49.910;6.792;2022-12-20T04:16:37;98912.59;;;4.46;nan
26807;BME280;14380;49.910;6.792;2022-12-20T04:19:04;98897.81;;;4.13;nan
26807;BME280;14380;49.910;6.792;2022-12-20T04:21:32;98895.28;;;4.10;nan
26807;BME280;14380;49.910;6.792;2022-12-20T04:24:01;98887.44;;;4.10;nan
26807;BME280;14380;49.910;6.792;2022-12-20T04:26:29;98887.53;;;4.06;nan
26807;BME280;14380;49.910;6.792;2022-12-20T04:28:56;98892.50;;;4.16;nan
26807;BME280;14380;49.910;6.792;2022-12-20T04:31:23;98885.34;;;4.23;nan
26807;BME280;14380;49.910;6.792;2022-12-20T04:33:50;98901.75;;;4.28;nan
26807;BME280;14380;49.910;6.792;2022-12-20T04:36:17;98891.97;;;4.37;nan
26807;BME280;14380;49.910;6.792;2022-12-20T04:38:43;98894.59;;;4.35;nan
26807;BME280;14380;49.910;6.792;2022-12-20T04:41:11;98886.69;;;4.38;nan
26807;BME280;14380;49.910;6.792;2022-12-20T04:43:47;98881.22;;;4.46;nan
26807;BME280;14380;49.910;6.792;2022-12-20T04:46:14;98890.34;;;4.63;nan
26807;BME280;14380;49.910;6.792;2022-12-20T04:48:40;98895.50;;;4.66;nan
26807;BME280;14380;49.910;6.792;2022-12-20T04:51:07;98889.03;;;4.47;nan
26807;BME280;14380;49.910;6.792;2022-12-20T04:53:33;98893.78;;;4.65;nan
26807;BME280;14380;49.910;6.792;2022-12-20T04:56:17;98889.75;;;4.83;nan
26807;BME280;14380;49.910;6.792;2022-12-20T04:58:44;98890.66;;;4.82;nan
26807;BME280;14380;49.910;6.792;2022-12-20T05:01:11;98879.38;;;4.81;nan
26807;BME280;14380;49.910;6.792;2022-12-20T05:03:38;98877.97;;;4.98;nan
26807;BME280;14380;49.910;6.792;2022-12-20T05:06:07;98886.06;;;4.90;nan
26807;BME280;14380;49.910;6.792;2022-12-20T05:08:34;98892.53;;;4.78;nan
26807;BME280;14380;49.910;6.792;2022-12-20T05:11:01;98888.50;;;4.96;nan
26807;BME280;14380;49.910;6.792;2022-12-20T05:13:29;98888.91;;;4.82;nan
26807;BME280;14380;49.910;6.792;2022-12-20T05:15:56;98882.91;;;4.79;nan
26807;BME280;14380;49.910;6.792;2022-12-20T05:18:24;98876.94;;;4.75;nan
26807;BME280;14380;49.910;6.792;2022-12-20T05:23:19;98881.19;;;4.78;nan
26807;BME280;14380;49.910;6.792;2022-12-20T05:26:03;98879.72;;;4.69;nan
26807;BME280;14380;49.910;6.792;2022-12-20T05:28:46;98879.75;;;4.67;nan
26807;BME280;14380;49.910;6.792;2022-12-20T05:31:12;98876.94;;;4.73;nan
26807;BME280;14380;49.910;6.792;2022-12-20T05:33:39;98875.06;;;4.49;nan
26807;BME280;14380;49.910;6.792;2022-12-20T05:36:06;98867.56;;;4.96;nan
26807;BME280;14380;49.910;6.792;2022-12-20T05:38:33;98867.03;;;4.85;nan
26807;BME280;14380;49.910;6.792;2022-12-20T05:41:00;98858.91;;;4.94;nan
26807;BME280;14380;49.910;6.792;2022-12-20T05:43:29;98853.63;;;4.96;nan
26807;BME280;14380;49.910;6.792;2022-12-20T05:45:57;98866.75;;;4.94;nan
26807;BME280;14380;49.910;6.792;2022-12-20T05:48:24;98869.00;;;5.06;nan
26807;BME280;14380;49.910;6.792;2022-12-20T05:50:51;98863.16;;;4.98;nan
26807;BME280;14380;49.910;6.792;2022-12-20T05:53:17;98871.38;;;5.14;nan
26807;BME280;14380;49.910;6.792;2022-12-20T05:55:45;98872.38;;;5.10;nan
26807;BME280;14380;49.910;6.792;2022-12-20T05:58:12;98873.84;;;5.19;nan
26807;BME280;14380;49.910;6.792;2022-12-20T06:00:39;98871.47;;;5.11;nan
26807;BME280;14380;49.910;6.792;2022-12-20T06:03:08;98872.72;;;5.28;nan
26807;BME280;14380;49.910;6.792;2022-12-20T06:05:36;98875.19;;;5.31;nan
26807;BME280;14380;49.910;6.792;2022-12-20T06:08:03;98866.69;;;5.24;nan
26807;BME280;14380;49.910;6.792;2022-12-20T06:10:30;98864.78;;;5.02;nan
26807;BME280;14380;49.910;6.792;2022-12-20T06:12:56;98865.84;;;5.24;nan
26807;BME280;14380;49.910;6.792;2022-12-20T06:15:23;98854.25;;;5.31;nan
26807;BME280;14380;49.910;6.792;2022-12-20T06:17:49;98855.50;;;5.19;nan
26807;BME280;14380;49.910;6.792;2022-12-20T06:20:17;98861.25;;;5.03;nan
26807;BME280;14380;49.910;6.792;2022-12-20T06:22:44;98865.59;;;5.04;nan
26807;BME280;14380;49.910;6.792;2022-12-20T06:25:10;98854.50;;;4.96;nan
26807;BME280;14380;49.910;6.792;2022-12-20T06:27:39;98857.75;;;5.03;nan
26807;BME280;14380;49.910;6.792;2022-12-20T06:30:07;98858.84;;;5.24;nan
26807;BME280;14380;49.910;6.792;2022-12-20T06:32:34;98860.66;;;4.94;nan
26807;BME280;14380;49.910;6.792;2022-12-20T06:35:00;98860.66;;;4.94;nan
26807;BME280;14380;49.910;6.792;2022-12-20T06:37:28;98863.28;;;4.94;nan
26807;BME280;14380;49.910;6.792;2022-12-20T06:39:56;98863.50;;;4.86;nan
26807;BME280;14380;49.910;6.792;2022-12-20T06:42:22;98868.84;;;4.83;nan
26807;BME280;14380;49.910;6.792;2022-12-20T06:44:49;98866.78;;;4.93;nan
26807;BME280;14380;49.910;6.792;2022-12-20T06:47:15;98859.63;;;4.99;nan
26807;BME280;14380;49.910;6.792;2022-12-20T06:49:42;98852.16;;;5.15;nan
26807;BME280;14380;49.910;6.792;2022-12-20T06:52:09;98849.47;;;5.17;nan
26807;BME280;14380;49.910;6.792;2022-12-20T06:54:36;98859.66;;;5.26;nan
26807;BME280;14380;49.910;6.792;2022-12-20T06:57:03;98855.06;;;5.33;nan
26807;BME280;14380;49.910;6.792;2022-12-20T06:59:31;98849.34;;;5.21;nan
26807;BME280;14380;49.910;6.792;2022-12-20T07:01:57;98845.63;;;5.29;nan
26807;BME280;14380;49.910;6.792;2022-12-20T07:04:24;98840.66;;;5.48;nan
26807;BME280;14380;49.910;6.792;2022-12-20T07:06:50;98831.44;;;5.61;nan
26807;BME280;14380;49.910;6.792;2022-12-20T07:09:17;98826.41;;;5.55;nan
26807;BME280;14380;49.910;6.792;2022-12-20T07:11:45;98817.09;;;5.46;nan
26807;BME280;14380;49.910;6.792;2022-12-20T07:14:11;98823.78;;;5.55;nan
26807;BME280;14380;49.910;6.792;2022-12-20T07:16:38;98829.84;;;5.57;nan
26807;BME280;14380;49.910;6.792;2022-12-20T07:19:05;98829.22;;;5.76;nan
26807;BME280;14380;49.910;6.792;2022-12-20T07:21:32;98822.44;;;5.70;nan
26807;BME280;14380;49.910;6.792;2022-12-20T07:23:58;98818.78;;;5.74;nan
26807;BME280;14380;49.910;6.792;2022-12-20T07:26:25;98817.88;;;5.75;nan
26807;BME280;14380;49.910;6.792;2022-12-20T07:28:53;98826.06;;;5.66;nan
26807;BME280;14380;49.910;6.792;2022-12-20T07:31:20;98823.78;;;5.82;nan
26807;BME280;14380;49.910;6.792;2022-12-20T07:33:46;98818.31;;;5.63;nan
26807;BME280;14380;49.910;6.792;2022-12-20T07:36:13;98811.94;;;5.45;nan
26807;BME280;14380;49.910;6.792;2022-12-20T07:38:41;98807.53;;;5.45;nan
26807;BME280;14380;49.910;6.792;2022-12-20T07:41:08;98805.63;;;5.50;nan
26807;BME280;14380;49.910;6.792;2022-12-20T07:43:35;98823.66;;;5.33;nan
26807;BME280;14380;49.910;6.792;2022-12-20T07:46:03;98821.25;;;5.54;nan
26807;BME280;14380;49.910;6.792;2022-12-20T07:48:31;98828.28;;;5.51;nan
26807;BME280;14380;49.910;6.792;2022-12-20T07:51:00;98825.56;;;5.55;nan
26807;BME280;14380;49.910;6.792;2022-12-20T07:53:29;98819.34;;;5.57;nan
26807;BME280;14380;49.910;6.792;2022-12-20T07:55:57;98818.47;;;5.84;nan
26807;BME280;14380;49.910;6.792;2022-12-20T07:58:26;98816.94;;;6.03;nan
26807;BME280;14380;49.910;6.792;2022-12-20T08:00:54;98823.09;;;6.02;nan
26807;BME280;14380;49.910;6.792;2022-12-20T08:03:25;98805.66;;;6.25;nan
26807;BME280;14380;49.910;6.792;2022-12-20T08:05:55;98805.66;;;6.00;nan
26807;BME280;14380;49.910;6.792;2022-12-20T08:08:23;98807.88;;;6.12;nan
26807;BME280;14380;49.910;6.792;2022-12-20T08:10:51;98795.53;;;6.16;nan
26807;BME280;14380;49.910;6.792;2022-12-20T08:13:17;98802.34;;;6.20;nan
26807;BME280;14380;49.910;6.792;2022-12-20T08:15:44;98804.94;;;6.21;nan
26807;BME280;14380;49.910;6.792;2022-12-20T08:18:11;98804.53;;;6.32;nan
26807;BME280;14380;49.910;6.792;2022-12-20T08:20:38;98807.50;;;6.47;nan
26807;BME280;14380;49.910;6.792;2022-12-20T08:23:05;98796.66;;;6.32;nan
26807;BME280;14380;49.910;6.792;2022-12-20T08:25:33;98800.59;;;6.44;nan
26807;BME280;14380;49.910;6.792;2022-12-20T08:27:59;98802.66;;;6.36;nan
26807;BME280;14380;49.910;6.792;2022-12-20T08:30:26;98809.31;;;6.45;nan
26807;BME280;14380;49.910;6.792;2022-12-20T08:32:53;98815.03;;;6.32;nan
26807;BME280;14380;49.910;6.792;2022-12-20T08:35:20;98807.91;;;6.36;nan
26807;BME280;14380;49.910;6.792;2022-12-20T08:37:50;98801.19;;;6.29;nan
26807;BME280;14380;49.910;6.792;2022-12-20T08:40:17;98796.72;;;6.07;nan
26807;BME280;14380;49.910;6.792;2022-12-20T08:42:43;98790.69;;;6.29;nan
26807;BME280;14380;49.910;6.792;2022-12-20T08:45:10;98785.25;;;6.33;nan
26807;BME280;14380;49.910;6.792;2022-12-20T08:47:37;98794.22;;;6.28;nan
26807;BME280;14380;49.910;6.792;2022-12-20T08:50:05;98797.97;;;6.44;nan
26807;BME280;14380;49.910;6.792;2022-12-20T08:52:32;98788.38;;;6.43;nan
26807;BME280;14380;49.910;6.792;2022-12-20T08:54:59;98790.16;;;6.43;nan
26807;BME280;14380;49.910;6.792;2022-12-20T08:57:26;98792.69;;;6.46;nan
26807;BME280;14380;49.910;6.792;2022-12-20T08:59:52;98806.53;;;6.49;nan
26807;BME280;14380;49.910;6.792;2022-12-20T09:02:19;98783.97;;;6.67;nan
26807;BME280;14380;49.910;6.792;2022-12-20T09:04:45;98781.31;;;6.69;nan
26807;BME280;14380;49.910;6.792;2022-12-20T09:07:12;98773.44;;;6.91;nan
26807;BME280;14380;49.910;6.792;2022-12-20T09:09:39;98779.84;;;7.06;nan
26807;BME280;14380;49.910;6.792;2022-12-20T09:12:07;98775.50;;;6.83;nan
26807;BME280;14380;49.910;6.792;2022-12-20T09:14:33;98766.78;;;6.82;nan
26807;BME280;14380;49.910;6.792;2022-12-20T09:17:00;98774.16;;;6.95;nan
26807;BME280;14380;49.910;6.792;2022-12-20T09:19:26;98779.41;;;6.95;nan
26807;BME280;14380;49.910;6.792;2022-12-20T09:21:53;98779.13;;;6.80;nan
26807;BME280;14380;49.910;6.792;2022-12-20T09:24:20;98783.00;;;6.70;nan
26807;BME280;14380;49.910;6.792;2022-12-20T09:26:46;98773.66;;;6.63;nan
26807;BME280;14380;49.910;6.792;2022-12-20T09:29:14;98765.25;;;6.77;nan
26807;BME280;14380;49.910;6.792;2022-12-20T09:31:41;98764.41;;;6.76;nan
26807;BME280;14380;49.910;6.792;2022-12-20T09:34:08;98764.81;;;6.65;nan
26807;BME280;14380;49.910;6.792;2022-12-20T09:36:35;98759.50;;;6.67;nan
26807;BME280;14380;49.910;6.792;2022-12-20T09:39:02;98761.00;;;6.74;nan
26807;BME280;14380;49.910;6.792;2022-12-20T09:41:32;98757.31;;;6.56;nan
26807;BME280;14380;49.910;6.792;2022-12-20T09:44:04;98753.47;;;6.43;nan
26807;BME280;14380;49.910;6.792;2022-12-20T09:46:33;98749.19;;;6.84;nan
26807;BME280;14380;49.910;6.792;2022-12-20T09:48:59;98744.94;;;6.82;nan
26807;BME280;14380;49.910;6.792;2022-12-20T09:51:39;98750.59;;;6.93;nan
26807;BME280;14380;49.910;6.792;2022-12-20T09:54:16;98748.09;;;6.68;nan
26807;BME280;14380;49.910;6.792;2022-12-20T09:56:57;98746.63;;;7.05;nan
26807;BME280;14380;49.910;6.792;2022-12-20T09:59:26;98753.00;;;7.20;nan
26807;BME280;14380;49.910;6.792;2022-12-20T10:01:54;98745.06;;;7.42;nan
26807;BME280;14380;49.910;6.792;2022-12-20T10:04:23;98744.56;;;7.55;nan
26807;BME280;14380;49.910;6.792;2022-12-20T10:07:00;98758.03;;;7.04;nan
26807;BME280;14380;49.910;6.792;2022-12-20T10:09:50;98749.63;;;7.39;nan
26807;BME280;14380;49.910;6.792;2022-12-20T10:12:24;98751.50;;;7.35;nan
26807;BME280;14380;49.910;6.792;2022-12-20T10:15:04;98750.47;;;7.60;nan
26807;BME280;14380;49.910;6.792;2022-12-20T10:17:57;98746.06;;;7.40;nan
26807;BME280;14380;49.910;6.792;2022-12-20T10:20:45;98743.09;;;7.48;nan
26807;BME280;14380;49.910;6.792;2022-12-20T10:23:20;98740.25;;;7.94;nan
26807;BME280;14380;49.910;6.792;2022-12-20T10:25:50;98740.16;;;7.95;nan
26807;BME280;14380;49.910;6.792;2022-12-20T10:28:23;98741.84;;;7.77;nan
26807;BME280;14380;49.910;6.792;2022-12-20T10:30:50;98729.88;;;8.10;nan
26807;BME280;14380;49.910;6.792;2022-12-20T10:33:20;98728.91;;;8.51;nan
26807;BME280;14380;49.910;6.792;2022-12-20T10:35:48;98721.50;;;8.59;nan
26807;BME280;14380;49.910;6.792;2022-12-20T10:38:16;98718.72;;;9.16;nan
26807;BME280;14380;49.910;6.792;2022-12-20T10:40:46;98708.41;;;9.29;nan
26807;BME280;14380;49.910;6.792;2022-12-20T10:43:15;98699.91;;;9.75;nan
26807;BME280;14380;49.910;6.792;2022-12-20T10:45:45;98693.38;;;9.82;nan
26807;BME280;14380;49.910;6.792;2022-12-20T10:48:29;98678.31;;;9.69;nan
26807;BME280;14380;49.910;6.792;2022-12-20T10:50:57;98669.16;;;10.08;nan
26807;BME280;14380;49.910;6.792;2022-12-20T10:53:24;98673.53;;;10.41;nan
26807;BME280;14380;49.910;6.792;2022-12-20T10:55:52;98679.06;;;10.36;nan
26807;BME280;14380;49.910;6.792;2022-12-20T10:58:30;98689.03;;;10.47;nan
26807;BME280;14380;49.910;6.792;2022-12-20T11:01:03;98685.69;;;10.27;nan
26807;BME280;14380;49.910;6.792;2022-12-20T11:03:31;98683.13;;;10.58;nan
26807;BME280;14380;49.910;6.792;2022-12-20T11:05:59;98676.59;;;10.33;nan
26807;BME280;14380;49.910;6.792;2022-12-20T11:08:28;98688.59;;;10.39;nan
26807;BME280;14380;49.910;6.792;2022-12-20T11:11:14;98685.69;;;10.44;nan
26807;BME280;14380;49.910;6.792;2022-12-20T11:13:42;98670.03;;;10.87;nan
26807;BME280;14380;49.910;6.792;2022-12-20T11:16:24;98681.66;;;10.84;nan
26807;BME280;14380;49.910;6.792;2022-12-20T11:19:01;98691.75;;;10.46;nan
26807;BME280;14380;49.910;6.792;2022-12-20T11:21:38;98677.75;;;10.76;nan
26807;BME280;14380;49.910;6.792;2022-12-20T11:24:11;98668.84;;;11.23;nan
26807;BME280;14380;49.910;6.792;2022-12-20T11:26:48;98653.78;;;11.69;nan
26807;BME280;14380;49.910;6.792;2022-12-20T11:29:39;98642.34;;;11.68;nan
26807;BME280;14380;49.910;6.792;2022-12-20T11:32:20;98643.72;;;12.17;nan
26807;BME280;14380;49.910;6.792;2022-12-20T11:35:02;98630.34;;;12.06;nan
26807;BME280;14380;49.910;6.792;2022-12-20T11:37:37;98636.13;;;12.26;nan
26807;BME280;14380;49.910;6.792;2022-12-20T11:40:19;98628.03;;;12.14;nan
26807;BME280;14380;49.910;6.792;2022-12-20T11:42:58;98625.66;;;12.24;nan
26807;BME280;14380;49.910;6.792;2022-12-20T11:45:34;98605.31;;;12.25;nan
26807;BME280;14380;49.910;6.792;2022-12-20T11:48:29;98612.97;;;12.02;nan
26807;BME280;14380;49.910;6.792;2022-12-20T11:51:09;98619.63;;;12.22;nan
26807;BME280;14380;49.910;6.792;2022-12-20T11:53:42;98613.38;;;12.23;nan
26807;BME280;14380;49.910;6.792;2022-12-20T11:56:15;98596.00;;;12.46;nan
26807;BME280;14380;49.910;6.792;2022-12-20T11:58:48;98590.84;;;12.30;nan
26807;BME280;14380;49.910;6.792;2022-12-20T12:01:18;98575.41;;;12.37;nan
26807;BME280;14380;49.910;6.792;2022-12-20T12:03:56;98569.66;;;12.58;nan
26807;BME280;14380;49.910;6.792;2022-12-20T12:06:28;98563.19;;;12.62;nan
26807;BME280;14380;49.910;6.792;2022-12-20T12:09:05;98569.97;;;12.66;nan
26807;BME280;14380;49.910;6.792;2022-12-20T12:11:37;98571.63;;;12.41;nan
26807;BME280;14380;49.910;6.792;2022-12-20T12:14:05;98564.19;;;12.87;nan
26807;BME280;14380;49.910;6.792;2022-12-20T12:16:39;98561.75;;;12.84;nan
26807;BME280;14380;49.910;6.792;2022-12-20T12:19:08;98564.22;;;12.46;nan
26807;BME280;14380;49.910;6.792;2022-12-20T12:21:40;98574.34;;;12.40;nan
26807;BME280;14380;49.910;6.792;2022-12-20T12:24:16;98567.59;;;12.36;nan
26807;BME280;14380;49.910;6.792;2022-12-20T12:26:45;98583.88;;;12.70;nan
26807;BME280;14380;49.910;6.792;2022-12-20T12:29:14;98579.22;;;12.33;nan
26807;BME280;14380;49.910;6.792;2022-12-20T12:31:43;98581.09;;;12.31;nan
26807;BME280;14380;49.910;6.792;2022-12-20T12:34:26;98571.75;;;12.53;nan
26807;BME280;14380;49.910;6.792;2022-12-20T12:37:29;98578.47;;;12.71;nan
26807;BME280;14380;49.910;6.792;2022-12-20T12:45:45;98568.94;;;12.82;nan
26807;BME280;14380;49.910;6.792;2022-12-20T12:48:17;98568.06;;;12.68;nan
26807;BME280;14380;49.910;6.792;2022-12-20T12:50:48;98565.22;;;12.84;nan
26807;BME280;14380;49.910;6.792;2022-12-20T12:53:20;98565.13;;;12.86;nan
26807;BME280;14380;49.910;6.792;2022-12-20T12:55:48;98565.34;;;12.96;nan
26807;BME280;14380;49.910;6.792;2022-12-20T12:58:36;98571.41;;;12.98;nan
26807;BME280;14380;49.910;6.792;2022-12-20T13:01:05;98574.44;;;12.66;nan
26807;BME280;14380;49.910;6.792;2022-12-20T13:03:44;98569.03;;;12.67;nan
26807;BME280;14380;49.910;6.792;2022-12-20T13:09:39;98547.31;;;12.75;nan
26807;BME280;14380;49.910;6.792;2022-12-20T13:15:51;98540.22;;;12.75;nan
26807;BME280;14380;49.910;6.792;2022-12-20T13:18:29;98537.47;;;12.37;nan
26807;BME280;14380;49.910;6.792;2022-12-20T13:27:15;98543.78;;;12.08;nan
26807;BME280;14380;49.910;6.792;2022-12-20T13:29:52;98536.69;;;12.22;nan
26807;BME280;14380;49.910;6.792;2022-12-20T13:32:55;98536.84;;;12.33;nan
26807;BME280;14380;49.910;6.792;2022-12-20T13:35:31;98539.22;;;12.10;nan
26807;BME280;14380;49.910;6.792;2022-12-20T13:37:59;98533.38;;;12.05;nan
26807;BME280;14380;49.910;6.792;2022-12-20T13:40:34;98537.88;;;11.75;nan
26807;BME280;14380;49.910;6.792;2022-12-20T13:43:06;98539.19;;;11.83;nan
26807;BME280;14380;49.910;6.792;2022-12-20T13:45:37;98537.72;;;11.92;nan
26807;BME280;14380;49.910;6.792;2022-12-20T13:48:05;98539.00;;;11.71;nan
26807;BME280;14380;49.910;6.792;2022-12-20T13:50:34;98533.56;;;11.87;nan
26807;BME280;14380;49.910;6.792;2022-12-20T13:53:05;98533.56;;;11.87;nan
26807;BME280;14380;49.910;6.792;2022-12-20T13:55:35;98525.00;;;11.84;nan
26807;BME280;14380;49.910;6.792;2022-12-20T13:58:05;98526.97;;;11.80;nan
26807;BME280;14380;49.910;6.792;2022-12-20T14:00:35;98518.16;;;12.22;nan
26807;BME280;14380;49.910;6.792;2022-12-20T14:03:03;98522.03;;;12.30;nan
26807;BME280;14380;49.910;6.792;2022-12-20T14:05:32;98523.09;;;12.41;nan
26807;BME280;14380;49.910;6.792;2022-12-20T14:08:01;98515.63;;;12.20;nan
26807;BME280;14380;49.910;6.792;2022-12-20T14:10:31;98516.28;;;12.24;nan